sensor_id;sensor_type;location;lat;lon;timestamp;temperature;humidity
70051;SHT30;57391;51.306;22.680;2023-08-12T00:01:45;14.54;71.63
70051;SHT30;57391;51.306;22.680;2023-08-12T00:04:12;14.52;71.48
70051;SHT30;57391;51.306;22.680;2023-08-12T00:06:41;14.50;71.35
70051;SHT30;57391;51.306;22.680;2023-08-12T00:09:08;14.51;71.09
70051;SHT30;57391;51.306;22.680;2023-08-12T00:11:41;14.49;70.92
70051;SHT30;57391;51.306;22.680;2023-08-12T00:14:08;14.48;70.96
70051;SHT30;57391;51.306;22.680;2023-08-12T00:16:35;14.45;71.10
70051;SHT30;57391;51.306;22.680;2023-08-12T00:19:02;14.43;71.22
70051;SHT30;57391;51.306;22.680;2023-08-12T00:21:29;14.40;71.33
70051;SHT30;57391;51.306;22.680;2023-08-12T00:23:57;14.37;71.34
70051;SHT30;57391;51.306;22.680;2023-08-12T00:26:23;14.35;71.48
70051;SHT30;57391;51.306;22.680;2023-08-12T00:28:50;14.33;71.38
70051;SHT30;57391;51.306;22.680;2023-08-12T00:31:17;14.32;71.55
70051;SHT30;57391;51.306;22.680;2023-08-12T00:33:44;14.31;71.77
70051;SHT30;57391;51.306;22.680;2023-08-12T00:36:11;14.30;71.68
70051;SHT30;57391;51.306;22.680;2023-08-12T00:38:38;14.30;71.83
70051;SHT30;57391;51.306;22.680;2023-08-12T00:41:05;14.31;71.88
70051;SHT30;57391;51.306;22.680;2023-08-12T00:43:32;14.32;71.95
70051;SHT30;57391;51.306;22.680;2023-08-12T00:45:58;14.36;71.95
70051;SHT30;57391;51.306;22.680;2023-08-12T00:48:25;14.35;71.84
70051;SHT30;57391;51.306;22.680;2023-08-12T00:50:52;14.35;72.03
70051;SHT30;57391;51.306;22.680;2023-08-12T00:53:19;14.35;72.09
70051;SHT30;57391;51.306;22.680;2023-08-12T00:55:47;14.34;72.14
70051;SHT30;57391;51.306;22.680;2023-08-12T00:58:14;14.33;72.22
70051;SHT30;57391;51.306;22.680;2023-08-12T01:00:41;14.31;72.31
70051;SHT30;57391;51.306;22.680;2023-08-12T01:03:08;14.32;72.33
70051;SHT30;57391;51.306;22.680;2023-08-12T01:05:35;14.32;72.40
70051;SHT30;57391;51.306;22.680;2023-08-12T01:08:02;14.32;72.38
70051;SHT30;57391;51.306;22.680;2023-08-12T01:10:33;14.28;72.38
70051;SHT30;57391;51.306;22.680;2023-08-12T01:15:52;14.18;72.12
70051;SHT30;57391;51.306;22.680;2023-08-12T01:18:25;14.16;72.10
70051;SHT30;57391;51.306;22.680;2023-08-12T01:20:53;14.17;72.03
70051;SHT30;57391;51.306;22.680;2023-08-12T01:23:20;14.16;71.93
70051;SHT30;57391;51.306;22.680;2023-08-12T01:25:47;14.16;72.00
70051;SHT30;57391;51.306;22.680;2023-08-12T01:28:14;14.17;72.10
70051;SHT30;57391;51.306;22.680;2023-08-12T01:30:51;14.17;72.04
70051;SHT30;57391;51.306;22.680;2023-08-12T01:33:30;14.15;71.90
70051;SHT30;57391;51.306;22.680;2023-08-12T01:36:09;14.13;71.97
70051;SHT30;57391;51.306;22.680;2023-08-12T01:38:45;14.10;72.02
70051;SHT30;57391;51.306;22.680;2023-08-12T01:41:13;14.08;72.12
70051;SHT30;57391;51.306;22.680;2023-08-12T01:43:42;14.07;72.13
70051;SHT30;57391;51.306;22.680;2023-08-12T01:46:10;14.08;72.04
70051;SHT30;57391;51.306;22.680;2023-08-12T01:48:37;14.09;71.93
70051;SHT30;57391;51.306;22.680;2023-08-12T01:51:04;14.11;71.88
70051;SHT30;57391;51.306;22.680;2023-08-12T01:53:31;14.09;71.78
70051;SHT30;57391;51.306;22.680;2023-08-12T01:55:59;14.08;71.73
70051;SHT30;57391;51.306;22.680;2023-08-12T01:58:26;14.05;71.84
70051;SHT30;57391;51.306;22.680;2023-08-12T02:00:53;14.04;72.03
70051;SHT30;57391;51.306;22.680;2023-08-12T02:03:20;14.03;72.16
70051;SHT30;57391;51.306;22.680;2023-08-12T02:05:47;14.05;72.14
70051;SHT30;57391;51.306;22.680;2023-08-12T02:08:14;14.07;72.11
70051;SHT30;57391;51.306;22.680;2023-08-12T02:10:41;14.08;72.10
70051;SHT30;57391;51.306;22.680;2023-08-12T02:13:08;14.08;72.09
70051;SHT30;57391;51.306;22.680;2023-08-12T02:15:35;14.08;72.13
70051;SHT30;57391;51.306;22.680;2023-08-12T02:18:02;14.07;72.24
70051;SHT30;57391;51.306;22.680;2023-08-12T02:20:29;14.06;72.33
70051;SHT30;57391;51.306;22.680;2023-08-12T02:22:56;14.07;72.39
70051;SHT30;57391;51.306;22.680;2023-08-12T02:25:23;14.07;72.34
70051;SHT30;57391;51.306;22.680;2023-08-12T02:27:49;14.05;72.37
70051;SHT30;57391;51.306;22.680;2023-08-12T02:30:16;14.05;72.27
70051;SHT30;57391;51.306;22.680;2023-08-12T02:32:43;14.01;71.97
70051;SHT30;57391;51.306;22.680;2023-08-12T02:35:10;13.99;72.06
70051;SHT30;57391;51.306;22.680;2023-08-12T02:37:37;13.97;72.00
70051;SHT30;57391;51.306;22.680;2023-08-12T02:40:04;13.93;71.91
70051;SHT30;57391;51.306;22.680;2023-08-12T02:42:32;13.88;71.92
70051;SHT30;57391;51.306;22.680;2023-08-12T02:44:58;13.79;71.78
70051;SHT30;57391;51.306;22.680;2023-08-12T02:47:26;13.72;71.95
70051;SHT30;57391;51.306;22.680;2023-08-12T02:49:54;13.68;72.22
70051;SHT30;57391;51.306;22.680;2023-08-12T02:52:21;13.64;72.17
70051;SHT30;57391;51.306;22.680;2023-08-12T02:54:48;13.61;72.18
70051;SHT30;57391;51.306;22.680;2023-08-12T02:57:15;13.56;72.11
70051;SHT30;57391;51.306;22.680;2023-08-12T02:59:41;13.55;72.22
70051;SHT30;57391;51.306;22.680;2023-08-12T03:02:08;13.55;72.23
70051;SHT30;57391;51.306;22.680;2023-08-12T03:04:36;13.53;72.37
70051;SHT30;57391;51.306;22.680;2023-08-12T03:07:03;13.50;72.40
70051;SHT30;57391;51.306;22.680;2023-08-12T03:09:30;13.48;72.46
70051;SHT30;57391;51.306;22.680;2023-08-12T03:11:57;13.46;72.51
70051;SHT30;57391;51.306;22.680;2023-08-12T03:14:28;13.44;72.68
70051;SHT30;57391;51.306;22.680;2023-08-12T03:16:58;13.42;72.78
70051;SHT30;57391;51.306;22.680;2023-08-12T03:19:26;13.41;72.90
70051;SHT30;57391;51.306;22.680;2023-08-12T03:21:53;13.38;73.08
70051;SHT30;57391;51.306;22.680;2023-08-12T03:24:21;13.34;73.30
70051;SHT30;57391;51.306;22.680;2023-08-12T03:26:48;13.32;73.49
70051;SHT30;57391;51.306;22.680;2023-08-12T03:29:15;13.31;73.64
70051;SHT30;57391;51.306;22.680;2023-08-12T03:31:42;13.33;73.81
70051;SHT30;57391;51.306;22.680;2023-08-12T03:34:10;13.35;73.95
70051;SHT30;57391;51.306;22.680;2023-08-12T03:36:37;13.38;74.04
70051;SHT30;57391;51.306;22.680;2023-08-12T03:39:04;13.42;74.25
70051;SHT30;57391;51.306;22.680;2023-08-12T03:41:31;13.47;74.47
70051;SHT30;57391;51.306;22.680;2023-08-12T03:43:59;13.49;74.74
70051;SHT30;57391;51.306;22.680;2023-08-12T03:46:26;13.55;74.88
70051;SHT30;57391;51.306;22.680;2023-08-12T03:48:54;13.62;74.73
70051;SHT30;57391;51.306;22.680;2023-08-12T03:51:20;13.70;74.88
70051;SHT30;57391;51.306;22.680;2023-08-12T03:53:48;13.78;75.16
70051;SHT30;57391;51.306;22.680;2023-08-12T03:56:15;13.89;75.22
70051;SHT30;57391;51.306;22.680;2023-08-12T03:58:43;14.09;75.05
70051;SHT30;57391;51.306;22.680;2023-08-12T04:01:12;15.16;73.76
70051;SHT30;57391;51.306;22.680;2023-08-12T04:03:38;16.24;71.28
70051;SHT30;57391;51.306;22.680;2023-08-12T04:06:05;17.10;69.44
70051;SHT30;57391;51.306;22.680;2023-08-12T04:08:32;18.33;66.97
70051;SHT30;57391;51.306;22.680;2023-08-12T04:11:00;19.25;65.04
70051;SHT30;57391;51.306;22.680;2023-08-12T04:13:27;20.29;63.11
70051;SHT30;57391;51.306;22.680;2023-08-12T04:15:54;21.34;60.54
70051;SHT30;57391;51.306;22.680;2023-08-12T04:18:21;22.23;58.24
70051;SHT30;57391;51.306;22.680;2023-08-12T04:20:49;22.22;57.50
70051;SHT30;57391;51.306;22.680;2023-08-12T04:23:17;22.62;56.46
70051;SHT30;57391;51.306;22.680;2023-08-12T04:25:46;23.44;54.24
70051;SHT30;57391;51.306;22.680;2023-08-12T04:28:14;23.54;53.04
70051;SHT30;57391;51.306;22.680;2023-08-12T04:30:42;23.41;52.65
70051;SHT30;57391;51.306;22.680;2023-08-12T04:33:10;23.59;52.02
70051;SHT30;57391;51.306;22.680;2023-08-12T04:35:39;23.02;52.18
70051;SHT30;57391;51.306;22.680;2023-08-12T04:38:07;23.26;51.92
70051;SHT30;57391;51.306;22.680;2023-08-12T04:40:37;24.05;50.64
70051;SHT30;57391;51.306;22.680;2023-08-12T04:43:07;23.78;50.24
70051;SHT30;57391;51.306;22.680;2023-08-12T04:45:35;23.88;50.35
70051;SHT30;57391;51.306;22.680;2023-08-12T04:48:02;25.22;48.31
70051;SHT30;57391;51.306;22.680;2023-08-12T04:50:31;26.56;45.99
70051;SHT30;57391;51.306;22.680;2023-08-12T04:53:00;27.73;44.36
70051;SHT30;57391;51.306;22.680;2023-08-12T04:55:27;28.70;42.66
70051;SHT30;57391;51.306;22.680;2023-08-12T04:57:54;29.55;41.37
70051;SHT30;57391;51.306;22.680;2023-08-12T05:00:22;30.30;39.96
70051;SHT30;57391;51.306;22.680;2023-08-12T05:02:49;30.24;38.90
70051;SHT30;57391;51.306;22.680;2023-08-12T05:05:17;30.34;38.51
70051;SHT30;57391;51.306;22.680;2023-08-12T05:07:44;30.28;38.17
70051;SHT30;57391;51.306;22.680;2023-08-12T05:10:15;29.76;37.96
70051;SHT30;57391;51.306;22.680;2023-08-12T05:12:43;28.72;38.85
70051;SHT30;57391;51.306;22.680;2023-08-12T05:15:11;27.84;39.79
70051;SHT30;57391;51.306;22.680;2023-08-12T05:17:38;27.10;40.74
70051;SHT30;57391;51.306;22.680;2023-08-12T05:20:05;26.50;42.01
70051;SHT30;57391;51.306;22.680;2023-08-12T05:22:33;26.07;42.68
70051;SHT30;57391;51.306;22.680;2023-08-12T05:24:59;25.75;42.81
70051;SHT30;57391;51.306;22.680;2023-08-12T05:27:26;25.39;43.59
70051;SHT30;57391;51.306;22.680;2023-08-12T05:29:53;25.02;45.20
70051;SHT30;57391;51.306;22.680;2023-08-12T05:32:20;24.67;46.18
70051;SHT30;57391;51.306;22.680;2023-08-12T05:34:49;24.39;47.00
70051;SHT30;57391;51.306;22.680;2023-08-12T05:37:18;24.28;46.89
70051;SHT30;57391;51.306;22.680;2023-08-12T05:39:45;24.52;47.07
70051;SHT30;57391;51.306;22.680;2023-08-12T05:42:12;24.80;46.43
70051;SHT30;57391;51.306;22.680;2023-08-12T05:44:40;25.02;46.38
70051;SHT30;57391;51.306;22.680;2023-08-12T05:47:08;25.04;46.13
70051;SHT30;57391;51.306;22.680;2023-08-12T05:49:35;24.83;46.25
70051;SHT30;57391;51.306;22.680;2023-08-12T05:52:02;24.59;46.39
70051;SHT30;57391;51.306;22.680;2023-08-12T05:54:29;24.39;47.01
70051;SHT30;57391;51.306;22.680;2023-08-12T05:56:56;24.20;47.24
70051;SHT30;57391;51.306;22.680;2023-08-12T05:59:23;24.00;46.89
70051;SHT30;57391;51.306;22.680;2023-08-12T06:01:50;23.83;47.04
70051;SHT30;57391;51.306;22.680;2023-08-12T06:04:16;23.69;46.80
70051;SHT30;57391;51.306;22.680;2023-08-12T06:06:43;23.61;46.89
70051;SHT30;57391;51.306;22.680;2023-08-12T06:09:10;23.56;47.17
70051;SHT30;57391;51.306;22.680;2023-08-12T06:11:37;23.52;46.89
70051;SHT30;57391;51.306;22.680;2023-08-12T06:14:04;23.50;46.75
70051;SHT30;57391;51.306;22.680;2023-08-12T06:16:31;23.50;46.56
70051;SHT30;57391;51.306;22.680;2023-08-12T06:18:58;23.51;47.54
70051;SHT30;57391;51.306;22.680;2023-08-12T06:21:24;23.56;47.39
70051;SHT30;57391;51.306;22.680;2023-08-12T06:23:51;23.54;46.34
70051;SHT30;57391;51.306;22.680;2023-08-12T06:26:19;23.51;47.03
70051;SHT30;57391;51.306;22.680;2023-08-12T06:28:46;23.41;46.62
70051;SHT30;57391;51.306;22.680;2023-08-12T06:31:13;23.37;46.45
70051;SHT30;57391;51.306;22.680;2023-08-12T06:33:39;23.39;47.44
70051;SHT30;57391;51.306;22.680;2023-08-12T06:36:06;23.40;46.57
70051;SHT30;57391;51.306;22.680;2023-08-12T06:38:33;23.38;46.41
70051;SHT30;57391;51.306;22.680;2023-08-12T06:41:00;23.41;46.33
70051;SHT30;57391;51.306;22.680;2023-08-12T06:43:27;23.45;46.05
70051;SHT30;57391;51.306;22.680;2023-08-12T06:45:53;23.50;45.88
70051;SHT30;57391;51.306;22.680;2023-08-12T06:48:20;23.56;45.83
70051;SHT30;57391;51.306;22.680;2023-08-12T06:50:52;23.65;45.43
70051;SHT30;57391;51.306;22.680;2023-08-12T06:53:24;23.65;45.02
70051;SHT30;57391;51.306;22.680;2023-08-12T06:55:52;23.67;44.61
70051;SHT30;57391;51.306;22.680;2023-08-12T06:58:19;23.70;45.13
70051;SHT30;57391;51.306;22.680;2023-08-12T07:00:46;23.75;45.24
70051;SHT30;57391;51.306;22.680;2023-08-12T07:03:13;23.78;44.82
70051;SHT30;57391;51.306;22.680;2023-08-12T07:05:40;23.87;44.83
70051;SHT30;57391;51.306;22.680;2023-08-12T07:08:06;24.04;43.32
70051;SHT30;57391;51.306;22.680;2023-08-12T07:10:33;24.19;43.48
70051;SHT30;57391;51.306;22.680;2023-08-12T07:13:00;24.34;42.26
70051;SHT30;57391;51.306;22.680;2023-08-12T07:15:27;24.48;41.61
70051;SHT30;57391;51.306;22.680;2023-08-12T07:17:54;24.58;40.66
70051;SHT30;57391;51.306;22.680;2023-08-12T07:20:21;24.68;40.76
70051;SHT30;57391;51.306;22.680;2023-08-12T07:22:48;24.80;40.51
70051;SHT30;57391;51.306;22.680;2023-08-12T07:25:15;24.89;40.10
70051;SHT30;57391;51.306;22.680;2023-08-12T07:27:42;25.05;41.30
70051;SHT30;57391;51.306;22.680;2023-08-12T07:30:10;25.20;39.55
70051;SHT30;57391;51.306;22.680;2023-08-12T07:32:38;25.30;38.69
70051;SHT30;57391;51.306;22.680;2023-08-12T07:35:05;25.39;38.27
70051;SHT30;57391;51.306;22.680;2023-08-12T07:37:32;25.51;38.71
70051;SHT30;57391;51.306;22.680;2023-08-12T07:39:59;25.68;38.93
70051;SHT30;57391;51.306;22.680;2023-08-12T07:42:26;25.88;39.17
70051;SHT30;57391;51.306;22.680;2023-08-12T07:44:53;25.94;37.68
70051;SHT30;57391;51.306;22.680;2023-08-12T07:47:20;26.00;37.94
70051;SHT30;57391;51.306;22.680;2023-08-12T07:49:47;26.02;36.87
70051;SHT30;57391;51.306;22.680;2023-08-12T07:52:13;26.00;36.74
70051;SHT30;57391;51.306;22.680;2023-08-12T07:54:40;26.03;37.32
70051;SHT30;57391;51.306;22.680;2023-08-12T07:57:07;26.18;37.44
70051;SHT30;57391;51.306;22.680;2023-08-12T07:59:34;26.43;36.38
70051;SHT30;57391;51.306;22.680;2023-08-12T08:02:01;26.68;35.96
70051;SHT30;57391;51.306;22.680;2023-08-12T08:04:28;26.89;35.21
70051;SHT30;57391;51.306;22.680;2023-08-12T08:06:55;27.17;35.05
70051;SHT30;57391;51.306;22.680;2023-08-12T08:09:22;27.48;34.92
70051;SHT30;57391;51.306;22.680;2023-08-12T08:11:48;27.76;35.26
70051;SHT30;57391;51.306;22.680;2023-08-12T08:14:15;28.07;34.96
70051;SHT30;57391;51.306;22.680;2023-08-12T08:16:42;28.34;34.37
70051;SHT30;57391;51.306;22.680;2023-08-12T08:19:09;28.54;34.10
70051;SHT30;57391;51.306;22.680;2023-08-12T08:21:36;28.74;33.10
70051;SHT30;57391;51.306;22.680;2023-08-12T08:24:03;28.85;33.42
70051;SHT30;57391;51.306;22.680;2023-08-12T08:26:30;29.04;33.47
70051;SHT30;57391;51.306;22.680;2023-08-12T08:28:57;29.09;32.64
70051;SHT30;57391;51.306;22.680;2023-08-12T08:31:24;29.14;32.88
70051;SHT30;57391;51.306;22.680;2023-08-12T08:33:51;29.24;33.02
70051;SHT30;57391;51.306;22.680;2023-08-12T08:36:18;29.23;32.78
70051;SHT30;57391;51.306;22.680;2023-08-12T08:38:45;29.26;32.27
70051;SHT30;57391;51.306;22.680;2023-08-12T08:41:12;29.33;32.91
70051;SHT30;57391;51.306;22.680;2023-08-12T08:43:42;29.37;32.85
70051;SHT30;57391;51.306;22.680;2023-08-12T08:46:14;29.42;32.80
70051;SHT30;57391;51.306;22.680;2023-08-12T08:48:42;29.49;32.92
70051;SHT30;57391;51.306;22.680;2023-08-12T08:51:11;29.58;32.16
70051;SHT30;57391;51.306;22.680;2023-08-12T08:53:39;29.60;32.45
70051;SHT30;57391;51.306;22.680;2023-08-12T08:56:07;29.57;31.61
70051;SHT30;57391;51.306;22.680;2023-08-12T08:58:38;29.50;32.07
70051;SHT30;57391;51.306;22.680;2023-08-12T09:01:06;29.39;31.98
70051;SHT30;57391;51.306;22.680;2023-08-12T09:03:35;29.29;32.25
70051;SHT30;57391;51.306;22.680;2023-08-12T09:06:05;29.24;32.04
70051;SHT30;57391;51.306;22.680;2023-08-12T09:08:32;29.13;32.58
70051;SHT30;57391;51.306;22.680;2023-08-12T09:11:00;29.10;33.03
70051;SHT30;57391;51.306;22.680;2023-08-12T09:13:29;29.09;32.91
70051;SHT30;57391;51.306;22.680;2023-08-12T09:15:56;29.05;32.24
70051;SHT30;57391;51.306;22.680;2023-08-12T09:18:23;28.99;32.20
70051;SHT30;57391;51.306;22.680;2023-08-12T09:20:51;28.98;32.69
70051;SHT30;57391;51.306;22.680;2023-08-12T09:23:18;28.96;32.27
70051;SHT30;57391;51.306;22.680;2023-08-12T09:25:46;28.88;32.72
70051;SHT30;57391;51.306;22.680;2023-08-12T09:28:15;28.81;32.82
70051;SHT30;57391;51.306;22.680;2023-08-12T09:30:42;28.83;33.25
70051;SHT30;57391;51.306;22.680;2023-08-12T09:33:23;28.92;33.13
70051;SHT30;57391;51.306;22.680;2023-08-12T09:35:54;28.95;32.13
70051;SHT30;57391;51.306;22.680;2023-08-12T09:38:25;28.96;32.54
70051;SHT30;57391;51.306;22.680;2023-08-12T09:40:52;29.04;32.76
70051;SHT30;57391;51.306;22.680;2023-08-12T09:43:23;29.10;32.15
70051;SHT30;57391;51.306;22.680;2023-08-12T09:45:50;29.11;32.20
70051;SHT30;57391;51.306;22.680;2023-08-12T09:48:18;29.14;32.38
70051;SHT30;57391;51.306;22.680;2023-08-12T09:50:44;29.17;32.84
70051;SHT30;57391;51.306;22.680;2023-08-12T09:53:11;29.19;32.03
70051;SHT30;57391;51.306;22.680;2023-08-12T09:55:38;29.09;32.34
70051;SHT30;57391;51.306;22.680;2023-08-12T09:58:06;29.07;32.92
70051;SHT30;57391;51.306;22.680;2023-08-12T10:00:37;29.08;33.08
70051;SHT30;57391;51.306;22.680;2023-08-12T10:03:07;29.03;33.11
70051;SHT30;57391;51.306;22.680;2023-08-12T10:05:37;29.07;33.22
70051;SHT30;57391;51.306;22.680;2023-08-12T10:08:04;29.14;33.30
70051;SHT30;57391;51.306;22.680;2023-08-12T10:10:34;29.22;32.86
70051;SHT30;57391;51.306;22.680;2023-08-12T10:13:02;29.24;33.38
70051;SHT30;57391;51.306;22.680;2023-08-12T10:15:34;29.22;33.39
70051;SHT30;57391;51.306;22.680;2023-08-12T10:18:01;29.26;33.60
70051;SHT30;57391;51.306;22.680;2023-08-12T10:20:32;29.25;33.51
70051;SHT30;57391;51.306;22.680;2023-08-12T10:23:02;29.23;33.12
70051;SHT30;57391;51.306;22.680;2023-08-12T10:25:31;29.21;33.47
70051;SHT30;57391;51.306;22.680;2023-08-12T10:28:02;29.18;32.93
70051;SHT30;57391;51.306;22.680;2023-08-12T10:30:29;29.13;32.60
70051;SHT30;57391;51.306;22.680;2023-08-12T10:32:58;29.07;32.83
70051;SHT30;57391;51.306;22.680;2023-08-12T10:38:15;29.11;34.07
70051;SHT30;57391;51.306;22.680;2023-08-12T10:40:45;29.10;34.31
70051;SHT30;57391;51.306;22.680;2023-08-12T10:43:12;29.07;33.42
70051;SHT30;57391;51.306;22.680;2023-08-12T10:45:47;29.02;34.30
70051;SHT30;57391;51.306;22.680;2023-08-12T10:48:23;28.95;33.42
70051;SHT30;57391;51.306;22.680;2023-08-12T10:50:52;28.91;34.35
70051;SHT30;57391;51.306;22.680;2023-08-12T10:56:00;28.97;34.96
70051;SHT30;57391;51.306;22.680;2023-08-12T10:58:45;29.02;34.53
70051;SHT30;57391;51.306;22.680;2023-08-12T11:01:16;29.03;34.17
70051;SHT30;57391;51.306;22.680;2023-08-12T11:03:45;29.08;34.93
70051;SHT30;57391;51.306;22.680;2023-08-12T11:06:14;29.10;34.45
70051;SHT30;57391;51.306;22.680;2023-08-12T11:08:48;29.10;34.11
70051;SHT30;57391;51.306;22.680;2023-08-12T11:11:24;29.14;34.07
70051;SHT30;57391;51.306;22.680;2023-08-12T11:13:58;29.19;33.93
70051;SHT30;57391;51.306;22.680;2023-08-12T11:16:34;29.24;33.84
70051;SHT30;57391;51.306;22.680;2023-08-12T11:19:03;29.26;33.94
70051;SHT30;57391;51.306;22.680;2023-08-12T11:21:31;29.28;34.03
70051;SHT30;57391;51.306;22.680;2023-08-12T11:23:58;29.29;34.67
70051;SHT30;57391;51.306;22.680;2023-08-12T11:26:26;29.28;33.97
70051;SHT30;57391;51.306;22.680;2023-08-12T11:28:53;29.32;34.52
70051;SHT30;57391;51.306;22.680;2023-08-12T11:31:20;29.31;33.66
70051;SHT30;57391;51.306;22.680;2023-08-12T11:33:48;29.29;34.22
70051;SHT30;57391;51.306;22.680;2023-08-12T11:36:15;29.26;34.41
70051;SHT30;57391;51.306;22.680;2023-08-12T11:38:43;29.22;33.94
70051;SHT30;57391;51.306;22.680;2023-08-12T11:41:10;29.20;33.81
70051;SHT30;57391;51.306;22.680;2023-08-12T11:43:38;29.22;35.04
70051;SHT30;57391;51.306;22.680;2023-08-12T11:46:06;29.20;33.95
70051;SHT30;57391;51.306;22.680;2023-08-12T11:48:33;29.22;34.17
70051;SHT30;57391;51.306;22.680;2023-08-12T11:50:59;29.19;34.29
70051;SHT30;57391;51.306;22.680;2023-08-12T11:53:27;29.13;34.19
70051;SHT30;57391;51.306;22.680;2023-08-12T11:55:54;29.14;34.06
70051;SHT30;57391;51.306;22.680;2023-08-12T11:58:21;29.17;34.19
70051;SHT30;57391;51.306;22.680;2023-08-12T12:00:49;29.17;33.71
70051;SHT30;57391;51.306;22.680;2023-08-12T12:03:16;29.15;33.83
70051;SHT30;57391;51.306;22.680;2023-08-12T12:05:45;29.10;34.69
70051;SHT30;57391;51.306;22.680;2023-08-12T12:08:14;29.06;34.43
70051;SHT30;57391;51.306;22.680;2023-08-12T12:10:41;29.03;34.00
70051;SHT30;57391;51.306;22.680;2023-08-12T12:13:07;28.99;34.74
70051;SHT30;57391;51.306;22.680;2023-08-12T12:15:43;28.90;34.86
70051;SHT30;57391;51.306;22.680;2023-08-12T12:18:11;28.83;35.28
70051;SHT30;57391;51.306;22.680;2023-08-12T12:20:57;28.79;35.90
70051;SHT30;57391;51.306;22.680;2023-08-12T12:23:28;28.76;35.81
70051;SHT30;57391;51.306;22.680;2023-08-12T12:26:00;28.70;35.81
70051;SHT30;57391;51.306;22.680;2023-08-12T12:28:30;28.67;35.77
70051;SHT30;57391;51.306;22.680;2023-08-12T12:30:57;28.62;36.04
70051;SHT30;57391;51.306;22.680;2023-08-12T12:33:24;28.59;35.69
70051;SHT30;57391;51.306;22.680;2023-08-12T12:35:51;28.54;35.89
70051;SHT30;57391;51.306;22.680;2023-08-12T12:38:18;28.52;35.96
70051;SHT30;57391;51.306;22.680;2023-08-12T12:40:45;28.46;35.53
70051;SHT30;57391;51.306;22.680;2023-08-12T12:43:11;28.39;35.14
70051;SHT30;57391;51.306;22.680;2023-08-12T12:45:38;28.34;35.56
70051;SHT30;57391;51.306;22.680;2023-08-12T12:48:05;28.34;35.94
70051;SHT30;57391;51.306;22.680;2023-08-12T12:50:32;28.33;36.20
70051;SHT30;57391;51.306;22.680;2023-08-12T12:52:59;28.34;36.08
70051;SHT30;57391;51.306;22.680;2023-08-12T12:55:26;28.30;36.17
70051;SHT30;57391;51.306;22.680;2023-08-12T12:57:53;28.26;36.60
70051;SHT30;57391;51.306;22.680;2023-08-12T13:00:20;28.25;36.69
70051;SHT30;57391;51.306;22.680;2023-08-12T13:02:46;28.21;36.27
70051;SHT30;57391;51.306;22.680;2023-08-12T13:05:13;28.17;35.65
70051;SHT30;57391;51.306;22.680;2023-08-12T13:07:40;28.17;35.74
70051;SHT30;57391;51.306;22.680;2023-08-12T13:10:07;28.19;35.23
70051;SHT30;57391;51.306;22.680;2023-08-12T13:12:35;28.23;36.18
70051;SHT30;57391;51.306;22.680;2023-08-12T13:15:02;28.24;36.09
70051;SHT30;57391;51.306;22.680;2023-08-12T13:17:30;28.24;36.02
70051;SHT30;57391;51.306;22.680;2023-08-12T13:19:56;28.25;35.70
70051;SHT30;57391;51.306;22.680;2023-08-12T13:22:23;28.28;34.98
70051;SHT30;57391;51.306;22.680;2023-08-12T13:24:50;28.27;35.99
70051;SHT30;57391;51.306;22.680;2023-08-12T13:27:17;28.26;35.83
70051;SHT30;57391;51.306;22.680;2023-08-12T13:29:44;28.25;35.67
70051;SHT30;57391;51.306;22.680;2023-08-12T13:32:11;28.24;36.35
70051;SHT30;57391;51.306;22.680;2023-08-12T13:34:38;28.28;36.20
70051;SHT30;57391;51.306;22.680;2023-08-12T13:37:04;28.31;35.42
70051;SHT30;57391;51.306;22.680;2023-08-12T13:39:32;28.35;36.13
70051;SHT30;57391;51.306;22.680;2023-08-12T13:41:59;28.31;35.82
70051;SHT30;57391;51.306;22.680;2023-08-12T13:44:25;28.26;36.28
70051;SHT30;57391;51.306;22.680;2023-08-12T13:46:52;28.27;36.09
70051;SHT30;57391;51.306;22.680;2023-08-12T13:49:19;28.22;35.64
70051;SHT30;57391;51.306;22.680;2023-08-12T13:51:46;28.16;36.31
70051;SHT30;57391;51.306;22.680;2023-08-12T13:54:13;28.15;36.42
70051;SHT30;57391;51.306;22.680;2023-08-12T13:56:40;28.14;36.02
70051;SHT30;57391;51.306;22.680;2023-08-12T13:59:07;28.10;36.01
70051;SHT30;57391;51.306;22.680;2023-08-12T14:01:36;28.03;35.46
70051;SHT30;57391;51.306;22.680;2023-08-12T14:04:09;28.01;36.10
70051;SHT30;57391;51.306;22.680;2023-08-12T14:06:36;28.01;35.68
70051;SHT30;57391;51.306;22.680;2023-08-12T14:09:03;28.00;35.57
70051;SHT30;57391;51.306;22.680;2023-08-12T14:11:30;28.00;35.62
70051;SHT30;57391;51.306;22.680;2023-08-12T14:13:57;27.98;35.37
70051;SHT30;57391;51.306;22.680;2023-08-12T14:16:24;27.95;35.34
70051;SHT30;57391;51.306;22.680;2023-08-12T14:18:51;27.92;35.79
70051;SHT30;57391;51.306;22.680;2023-08-12T14:21:18;27.88;36.11
70051;SHT30;57391;51.306;22.680;2023-08-12T14:23:44;27.85;36.03
70051;SHT30;57391;51.306;22.680;2023-08-12T14:26:11;27.81;36.18
70051;SHT30;57391;51.306;22.680;2023-08-12T14:28:38;27.79;36.55
70051;SHT30;57391;51.306;22.680;2023-08-12T14:31:05;27.73;36.72
70051;SHT30;57391;51.306;22.680;2023-08-12T14:33:32;27.69;36.48
70051;SHT30;57391;51.306;22.680;2023-08-12T14:35:59;27.66;36.82
70051;SHT30;57391;51.306;22.680;2023-08-12T14:38:26;27.65;36.80
70051;SHT30;57391;51.306;22.680;2023-08-12T14:40:53;27.63;36.26
70051;SHT30;57391;51.306;22.680;2023-08-12T14:43:20;27.61;36.77
70051;SHT30;57391;51.306;22.680;2023-08-12T14:45:47;27.61;36.81
70051;SHT30;57391;51.306;22.680;2023-08-12T14:48:14;27.61;36.51
70051;SHT30;57391;51.306;22.680;2023-08-12T14:50:43;27.62;36.26
70051;SHT30;57391;51.306;22.680;2023-08-12T14:53:11;27.59;36.11
70051;SHT30;57391;51.306;22.680;2023-08-12T14:55:38;27.53;36.21
70051;SHT30;57391;51.306;22.680;2023-08-12T14:58:05;27.48;36.34
70051;SHT30;57391;51.306;22.680;2023-08-12T15:00:32;27.45;36.11
70051;SHT30;57391;51.306;22.680;2023-08-12T15:03:00;27.42;35.20
70051;SHT30;57391;51.306;22.680;2023-08-12T15:05:27;27.40;35.39
70051;SHT30;57391;51.306;22.680;2023-08-12T15:07:53;27.40;35.88
70051;SHT30;57391;51.306;22.680;2023-08-12T15:10:20;27.40;35.72
70051;SHT30;57391;51.306;22.680;2023-08-12T15:12:47;27.40;35.92
70051;SHT30;57391;51.306;22.680;2023-08-12T15:15:14;27.40;35.69
70051;SHT30;57391;51.306;22.680;2023-08-12T15:17:41;27.37;36.69
70051;SHT30;57391;51.306;22.680;2023-08-12T15:20:08;27.29;36.24
70051;SHT30;57391;51.306;22.680;2023-08-12T15:22:36;27.24;36.20
70051;SHT30;57391;51.306;22.680;2023-08-12T15:25:03;27.20;36.18
70051;SHT30;57391;51.306;22.680;2023-08-12T15:27:32;27.18;35.76